Sunday, December 16, 2018, 11:27 AM CST
Back to Local

KMDW, Chicago Midway Airport

Location: Chicago, IL, United States Lat: 41.783
Local Time: 11:27 AM CST (17:27 GMT) Lon: -87.75
Time Zone: US/Central Elev: 620 ft

Show me the last for .
Show Coded

Time T Td Feel RH Dir Speed Gust Alt SLP Vis Weather Sky Remarks
2018-12-16 10:53 42 34 36 72 270° 10 - 30.09 30.11 10 FEW170 SCT250 None
2018-12-16 09:53 34 33 28 96 250° 7 - 30.11 30.14 10 FEW170 FEW250 None
2018-12-16 08:53 31 31 26 100 250° 5 - 30.12 30.14 6 BR FEW002 FEW170 None
2018-12-16 08:45 30 30 25 100 260° 5 - 30.12 - 2 BR FEW002 SCT170 None
2018-12-16 08:17 30 30 26 100 230° 3 - 30.10 - 1 BR SCT002 BKN170 None
2018-12-16 08:07 29 29 24 100 250° 5 - 30.11 - 1 BR OVC002 None
2018-12-16 07:53 29 29 24 100 220° 5 - 30.10 30.14 0 FZFG VV002 None
2018-12-16 07:45 29 29 25 100 230° 3 - 30.11 - 0 FZFG VV002 None
2018-12-16 06:53 29 29 - 100 - Calm - 30.11 30.14 0 FZFG VV002 None
2018-12-16 05:53 29 29 - 100 - Calm - 30.11 30.14 0 FZFG VV002 6-hr Min Temp (6am): 28.9°F
6-hr Max Temp (6am): 35.1°F
2018-12-16 04:53 31 31 - 100 - Calm - 30.11 30.14 0 FZFG VV002 None
2018-12-16 03:53 32 32 - 100 - Calm - 30.12 30.14 0 FG VV002 None
2018-12-16 03:37 32 32 26 100 330° 6 - 30.13 - 0 FG VV002 None
2018-12-16 03:24 32 32 26 100 330° 6 - 30.12 - 0 FG OVC002 None
2018-12-16 03:19 32 32 26 100 320° 7 - 30.13 - 0 BR OVC002 None
2018-12-16 03:11 32 32 26 100 320° 7 - 30.12 - 1 BR OVC002 None
2018-12-16 02:53 31 31 25 100 320° 6 - 30.12 30.14 5 BR SCT002 None
2018-12-16 01:53 32 31 25 95 320° 8 - 30.12 30.14 8 FEW250 None
2018-12-16 00:53 33 32 28 95 320° 6 - 30.12 30.14 10 FEW250 None
2018-12-15 23:53 34 33 28 96 350° 7 - 30.11 30.13 10 FEW250 6-hr Min Temp (12am): 33.1°F
6-hr Max Temp (12am): 39.0°F
24-hr Min Temp (12am): 30.9°F
24-hr Max Temp (12am): 48.0°F
2018-12-15 22:53 33 31 27 91 330° 7 - 30.12 30.15 10 FEW250 None
2018-12-15 21:53 36 34 33 92 20° 3 - 30.12 30.15 10 FEW250 None
2018-12-15 20:53 36 33 30 89 10° 7 - 30.13 30.16 10 FEW250 None
2018-12-15 19:53 37 34 32 88 40° 7 - 30.15 30.18 10 FEW250 None
2018-12-15 18:53 39 34 33 81 10° 8 - 30.15 30.18 10 FEW250 None
2018-12-15 17:53 39 34 33 81 10° 9 - 30.15 30.18 10 FEW250 6-hr Min Temp (6pm): 39.0°F
6-hr Max Temp (6pm): 48.0°F
2018-12-15 16:53 40 33 33 76 20° 10 - 30.15 30.18 10 FEW250 None
2018-12-15 15:53 42 32 36 67 40° 10 - 30.14 30.17 10 FEW250 None
2018-12-15 14:53 44 31 38 59 40° 13 - 30.12 30.15 10 FEW250 None
2018-12-15 13:53 46 31 41 55 30° 12 - 30.11 30.13 10 FEW250 None
2018-12-15 12:53 48 30 43 49 30° 12 - 30.12 30.14 10 FEW250 None
2018-12-15 11:53 47 30 42 51 60° 12 - 30.13 30.16 10 FEW250 6-hr Min Temp (12pm): 34.0°F
6-hr Max Temp (12pm): 46.9°F

Support USWX by starting your Amazon purchase here.